Rodney, Iowa
Current Conditions -  °F | °C
As of 9:52 AM on Wednesday 26 Nov 2014 (Local Time) from KSUX Reporting Station
Overcast Overcast  
Wind Chill: 16°   Ceiling: 1500
Heat Index: 30°   Visibility: 10mi
Dew Point: 25°   Wind: 25mph
Humidity: 82%   Direction: 360°N
Pressure: 30.09"   Gusts: 30mph
Location:  42.21°N, 95.95°W
Report Text: KSUX 261552Z 36022G26KT 10SM OVC015 M01/M04 A3009 RMK AO2 PK WND 35029/1536 PRESRR SLP200 T10111039
Loading
Personal Weather Stations






























Interactive Weather Map New forecast layout! Learn more

10-Day Weather Forecast

Advertisements
Track Severe Weather on mobile